createdAt,value
2018-07-06T00:03:46.207Z,23.00
2018-07-06T00:09:01.473Z,22.90
2018-07-06T00:14:16.721Z,23.00
2018-07-06T00:19:32.035Z,22.90
2018-07-06T00:24:47.456Z,22.70
2018-07-06T00:30:02.696Z,22.70
2018-07-06T00:35:18.195Z,22.80
2018-07-06T00:40:33.796Z,22.30
2018-07-06T00:45:49.198Z,22.30
2018-07-06T00:51:04.591Z,22.50
2018-07-06T00:56:20.136Z,22.50
2018-07-06T01:01:35.366Z,22.30
2018-07-06T01:06:50.831Z,22.20
2018-07-06T01:12:11.706Z,22.40
2018-07-06T01:17:27.181Z,22.20
2018-07-06T01:22:42.509Z,22.20
2018-07-06T01:27:57.856Z,22.10
2018-07-06T01:33:13.344Z,22.10
2018-07-06T01:38:29.048Z,22.00
2018-07-06T01:43:44.381Z,21.90
2018-07-06T01:48:59.709Z,21.90
2018-07-06T01:54:15.055Z,21.90
2018-07-06T01:59:30.394Z,21.80
2018-07-06T02:09:55.733Z,21.60
2018-07-06T02:15:11.164Z,21.70
2018-07-06T02:20:26.465Z,21.70
2018-07-06T02:25:41.903Z,21.90
2018-07-06T02:30:57.236Z,21.90
2018-07-06T02:36:12.540Z,21.90
2018-07-06T02:41:28.058Z,21.90
2018-07-06T02:46:43.389Z,21.80
2018-07-06T02:57:07.813Z,21.50
2018-07-06T03:02:23.282Z,21.40
2018-07-06T03:07:38.492Z,21.50
2018-07-06T03:12:53.856Z,21.50
2018-07-06T03:18:09.125Z,21.50
2018-07-06T03:23:24.442Z,21.60
2018-07-06T03:28:40.239Z,21.50
2018-07-06T03:33:55.185Z,21.50
2018-07-06T03:39:10.351Z,21.60
2018-07-06T03:44:25.699Z,21.30
2018-07-06T03:49:41.135Z,21.10
2018-07-06T04:00:05.824Z,21.20
2018-07-06T04:05:21.297Z,21.20
2018-07-06T04:10:36.643Z,21.40
2018-07-06T04:15:52.056Z,21.40
2018-07-06T04:21:07.495Z,21.30
2018-07-06T04:26:22.872Z,21.20
2018-07-06T04:31:38.398Z,21.10
2018-07-06T04:36:53.892Z,20.90
2018-07-06T04:42:09.019Z,20.80
2018-07-06T04:47:24.480Z,20.90
2018-07-06T04:52:40.572Z,21.00
2018-07-06T04:57:55.910Z,21.20
2018-07-06T05:08:20.445Z,21.30
2018-07-06T05:13:35.777Z,21.20
2018-07-06T05:18:51.034Z,21.30
2018-07-06T05:24:06.439Z,21.60
2018-07-06T05:29:21.808Z,21.70
2018-07-06T05:34:37.244Z,21.40
2018-07-06T05:39:52.712Z,21.70
2018-07-06T05:45:08.138Z,21.80
2018-07-06T05:50:23.610Z,21.80
2018-07-06T05:55:39.081Z,21.80
2018-07-06T06:00:55.203Z,21.80
2018-07-06T06:11:08.372Z,21.70
2018-07-06T06:16:12.373Z,21.70
2018-07-06T06:21:16.401Z,21.70
2018-07-06T06:26:25.779Z,21.90
2018-07-06T06:31:30.147Z,22.00
2018-07-06T06:36:34.159Z,22.00
2018-07-06T06:41:38.152Z,22.20
2018-07-06T06:46:42.540Z,22.30
2018-07-06T06:51:47.118Z,22.50
2018-07-06T06:56:51.712Z,22.70
2018-07-06T07:01:55.692Z,23.00
2018-07-06T07:06:59.695Z,23.20
2018-07-06T07:12:03.766Z,23.20
2018-07-06T07:17:07.749Z,23.20
2018-07-06T07:22:11.811Z,23.30
2018-07-06T07:27:15.886Z,23.20
2018-07-06T07:32:19.881Z,23.10
2018-07-06T07:37:23.889Z,23.10
2018-07-06T07:42:27.898Z,23.00
2018-07-06T07:47:31.896Z,23.10
2018-07-06T07:52:47.260Z,23.10
2018-07-06T07:57:51.266Z,23.10
2018-07-06T08:02:55.274Z,23.30
2018-07-06T08:07:59.293Z,23.60
2018-07-06T08:13:03.296Z,23.60
2018-07-06T08:18:07.287Z,23.50
2018-07-06T08:23:12.212Z,23.70
2018-07-06T08:28:16.264Z,23.90
2018-07-06T08:33:20.922Z,24.20
2018-07-06T08:38:24.916Z,24.70
2018-07-06T08:43:28.915Z,24.80
2018-07-06T08:48:32.923Z,25.10
2018-07-06T08:53:37.112Z,25.30
2018-07-06T08:58:41.114Z,25.80
2018-07-06T09:03:45.930Z,25.90
2018-07-06T09:08:49.936Z,27.30
2018-07-06T09:18:57.638Z,27.30
2018-07-06T09:24:01.664Z,28.60
2018-07-06T09:29:05.688Z,29.30
2018-07-06T09:34:10.339Z,29.60
2018-07-06T09:39:14.327Z,30.50
2018-07-06T09:44:18.357Z,30.10
2018-07-06T09:49:22.335Z,31.10
2018-07-06T09:54:26.365Z,31.00
2018-07-06T09:59:30.350Z,31.60
2018-07-06T10:04:34.332Z,32.90
2018-07-06T10:14:41.964Z,33.60
2018-07-06T10:19:46.002Z,32.60
2018-07-06T10:24:49.977Z,31.60
2018-07-06T10:30:06.345Z,31.70
2018-07-06T10:35:10.335Z,31.70
2018-07-06T10:40:14.400Z,32.80
2018-07-06T10:45:18.358Z,33.50
2018-07-06T10:50:22.474Z,32.80
2018-07-06T10:55:26.481Z,34.30
2018-07-06T11:05:34.109Z,33.40
2018-07-06T11:10:38.106Z,34.40
2018-07-06T11:15:42.106Z,34.50
2018-07-06T11:20:46.113Z,34.80
2018-07-06T11:25:50.534Z,33.70
2018-07-06T11:30:54.527Z,34.90
2018-07-06T11:35:58.516Z,33.80
2018-07-06T11:41:02.534Z,32.90
2018-07-06T11:46:06.571Z,33.40
2018-07-06T11:51:10.596Z,34.10
2018-07-06T11:56:14.645Z,34.90
2018-07-06T12:01:18.662Z,34.70
2018-07-06T12:06:22.640Z,34.90
2018-07-06T12:11:27.518Z,34.70
2018-07-06T12:16:31.559Z,35.80
2018-07-06T12:21:35.548Z,36.10
2018-07-06T12:26:39.599Z,35.60
2018-07-06T12:31:43.669Z,35.50
2018-07-06T12:36:47.672Z,36.10
2018-07-06T12:41:51.690Z,35.90
2018-07-06T12:46:55.703Z,35.00
2018-07-06T12:51:59.706Z,35.50
2018-07-06T12:57:03.699Z,36.90
2018-07-06T13:02:07.691Z,36.00
2018-07-06T13:07:11.716Z,35.80
2018-07-06T13:12:15.710Z,34.90
2018-07-06T13:17:19.728Z,32.90
2018-07-06T13:22:23.728Z,31.60
2018-07-06T13:32:32.160Z,30.60
2018-07-06T13:37:36.182Z,33.00
2018-07-06T13:42:40.157Z,35.60
2018-07-06T13:47:44.368Z,36.50
2018-07-06T13:52:48.359Z,37.10
2018-07-06T13:57:58.338Z,37.60
2018-07-06T14:03:02.337Z,38.10
2018-07-06T14:08:06.333Z,37.60
2018-07-06T14:13:10.346Z,36.70
2018-07-06T14:18:14.335Z,36.20
2018-07-06T14:23:18.352Z,35.20
2018-07-06T14:28:22.643Z,34.50
2018-07-06T14:33:26.640Z,33.30
2018-07-06T14:38:30.648Z,34.60
2018-07-06T14:43:34.647Z,33.60
2018-07-06T14:48:38.691Z,33.70
2018-07-06T14:53:42.697Z,33.10
2018-07-06T14:58:46.726Z,32.80
2018-07-06T15:03:50.723Z,33.50
2018-07-06T15:08:54.801Z,33.00
2018-07-06T15:13:58.763Z,32.70
2018-07-06T15:19:03.661Z,31.80
2018-07-06T15:24:07.778Z,31.50
2018-07-06T15:29:11.998Z,31.70
2018-07-06T15:34:15.992Z,31.50
2018-07-06T15:44:23.607Z,30.90
2018-07-06T15:49:27.608Z,30.80
2018-07-06T15:54:32.504Z,30.60
2018-07-06T15:59:37.248Z,30.40
2018-07-06T16:04:41.262Z,30.50
2018-07-06T16:09:45.271Z,31.00
2018-07-06T16:14:49.283Z,31.10
2018-07-06T16:19:53.294Z,31.20
2018-07-06T16:24:57.323Z,31.90
2018-07-06T16:30:01.548Z,31.60
2018-07-06T16:35:05.524Z,31.70
2018-07-06T16:45:13.135Z,32.80
2018-07-06T16:50:17.156Z,31.70
2018-07-06T16:55:21.168Z,30.80
2018-07-06T17:00:25.197Z,30.40
2018-07-06T17:05:29.167Z,30.00
2018-07-06T17:10:33.329Z,29.70
2018-07-06T17:15:37.333Z,29.40
2018-07-06T17:25:45.024Z,29.20
2018-07-06T17:30:49.101Z,29.00
2018-07-06T17:40:56.798Z,29.00
2018-07-06T17:46:00.795Z,29.10
2018-07-06T17:51:04.831Z,29.10
2018-07-06T17:56:08.825Z,29.00
2018-07-06T18:01:12.889Z,29.20
2018-07-06T18:06:16.924Z,29.10
2018-07-06T18:11:21.859Z,29.10
2018-07-06T18:16:26.120Z,29.10
2018-07-06T18:21:30.139Z,28.90
2018-07-06T18:26:34.151Z,28.70
2018-07-06T18:31:38.242Z,28.20
2018-07-06T18:36:42.236Z,28.30
2018-07-06T18:41:46.230Z,28.40
2018-07-06T18:46:50.238Z,28.30
2018-07-06T18:51:54.308Z,28.00
2018-07-06T18:56:58.330Z,28.00
2018-07-06T19:02:02.337Z,27.70
2018-07-06T19:07:06.341Z,27.50
2018-07-06T19:12:10.323Z,27.40
2018-07-06T19:17:14.355Z,27.40
2018-07-06T19:27:22.002Z,27.10
2018-07-06T19:32:26.095Z,26.90
2018-07-06T19:37:30.098Z,26.80
2018-07-06T19:42:34.103Z,26.60
2018-07-06T19:47:38.091Z,26.60
2018-07-06T19:52:42.088Z,26.50
2018-07-06T19:57:46.095Z,26.30
2018-07-06T20:02:50.102Z,26.20
2018-07-06T20:07:54.170Z,26.10
2018-07-06T20:12:58.148Z,25.90
2018-07-06T20:18:02.189Z,25.70
2018-07-06T20:23:06.143Z,25.50
2018-07-06T20:33:13.838Z,25.30
2018-07-06T20:38:17.858Z,25.30
2018-07-06T20:43:21.886Z,25.20
2018-07-06T20:48:25.852Z,24.90
2018-07-06T20:53:29.916Z,24.70
2018-07-06T20:58:34.078Z,24.60
2018-07-06T21:03:38.108Z,24.70
2018-07-06T21:08:42.879Z,24.40
2018-07-06T21:13:46.890Z,24.50
2018-07-06T21:18:50.928Z,24.50
2018-07-06T21:23:54.924Z,24.60
2018-07-06T21:28:58.924Z,24.40
2018-07-06T21:34:02.979Z,24.50
2018-07-06T21:39:07.002Z,24.40
2018-07-06T21:44:11.036Z,24.20
2018-07-06T21:49:15.007Z,24.20
2018-07-06T21:54:19.016Z,24.10
2018-07-06T21:59:23.020Z,23.90
2018-07-06T22:04:27.000Z,23.80
2018-07-06T22:09:31.006Z,23.70
2018-07-06T22:14:35.016Z,23.50
2018-07-06T22:19:39.087Z,23.50
2018-07-06T22:24:43.091Z,23.60
2018-07-06T22:29:47.103Z,23.70
2018-07-06T22:34:51.170Z,23.70
2018-07-06T22:39:55.153Z,23.70
2018-07-06T22:44:59.153Z,23.70
2018-07-06T22:50:03.169Z,23.50
2018-07-06T22:55:07.432Z,23.20
2018-07-06T23:00:11.443Z,23.30
2018-07-06T23:05:17.702Z,23.30
2018-07-06T23:10:21.619Z,23.00
2018-07-06T23:20:29.253Z,22.50
2018-07-06T23:25:35.168Z,22.50
2018-07-06T23:30:39.178Z,22.30
2018-07-06T23:35:43.265Z,22.00
2018-07-06T23:45:50.907Z,22.00
2018-07-06T23:55:58.617Z,21.90
